This is the latest recevied weather packets stored in our database for station/object SV9TNF-1. If no packets are shown the sender has not sent any weather packets the latest 10 day(s).
| Time | Temp. | Humidity | Pressure | Rain* | Wind** | Luminosity | Snow |
|---|---|---|---|---|---|---|---|
| 1777413248 | 15.56° C | 75% | 1005.1 hPa | 0 mm | 7.15 m/s, 330° | - | - |
| 1777412948 | 15.56° C | 70% | 1005.1 hPa | 0 mm | 2.68 m/s, 92° | - | - |
| 1777412647 | 15.56° C | 71% | 1005.4 hPa | 0 mm | 8.49 m/s, 357° | - | - |
| 1777412347 | 15° C | 69% | 1005.4 hPa | 0 mm | 6.26 m/s, 338° | - | - |
| 1777412047 | 15° C | 77% | 1005.4 hPa | 0 mm | 3.58 m/s, 286° | - | - |
| 1777411747 | 15.56° C | 82% | 1005.4 hPa | 0 mm | 5.81 m/s, 327° | - | - |
| 1777411447 | 15.56° C | 82% | 1005.4 hPa | 0 mm | 6.71 m/s, 340° | - | - |
| 1777411147 | 15.56° C | 80% | 1005.4 hPa | 0 mm | 4.47 m/s, 330° | - | - |
| 1777410847 | 15.56° C | 82% | 1005.4 hPa | 0 mm | 5.81 m/s, 334° | - | - |
| 1777410547 | 15.56° C | 83% | 1005.4 hPa | 0 mm | 4.02 m/s, 348° | - | - |
| 1777410247 | 15.56° C | 82% | 1005.4 hPa | 0 mm | 7.6 m/s, 334° | - | - |
| 1777409947 | 15.56° C | 81% | 1005.4 hPa | 0 mm | 7.15 m/s, 330° | - | - |
| 1777409647 | 15.56° C | 79% | 1005.4 hPa | 0 mm | 7.15 m/s, 339° | - | - |
| 1777409347 | 15.56° C | 77% | 1005.4 hPa | 0 mm | 7.15 m/s, 336° | - | - |
| 1777409046 | 15.56° C | 75% | 1005.4 hPa | 0 mm | 5.81 m/s, 336° | - | - |
| 1777408746 | 15.56° C | 78% | 1005.4 hPa | 0 mm | 8.05 m/s, 359° | - | - |
| 1777408446 | 15.56° C | 78% | 1005.4 hPa | 0 mm | 7.15 m/s, 322° | - | - |
| 1777408146 | 15.56° C | 72% | 1005.4 hPa | 0 mm | 4.92 m/s, 322° | - | - |
| 1777407848 | 15.56° C | 75% | 1005.4 hPa | 0 mm | 4.47 m/s, 327° | - | - |
| 1777407546 | 15.56° C | 75% | 1005.4 hPa | 0 mm | 5.81 m/s, 315° | - | - |
| 1777407246 | 15.56° C | 75% | 1005.4 hPa | 0 mm | 3.58 m/s, 305° | - | - |
| 1777406946 | 15.56° C | 77% | 1005.4 hPa | 0 mm | 4.02 m/s, 336° | - | - |
| 1777406646 | 16.11° C | 77% | 1005.4 hPa | 0 mm | 4.02 m/s, 344° | - | - |
| 1777406345 | 15.56° C | 76% | 1005.4 hPa | 0 mm | 3.58 m/s, 334° | - | - |
| 1777406045 | 15.56° C | 75% | 1005.4 hPa | 0 mm | 1.79 m/s, 188° | - | - |
* Rain latest hour (hover to see other rain measurements)
** Current wind speed in m/s (hover to see current wind gust speed)